sensor_id;sensor_type;location;lat;lon;timestamp;temperature;humidity
30973;DHT22;25423;45.624;13.790;2022-11-20T00:01:16;8.70;99.90
30973;DHT22;25423;45.624;13.790;2022-11-20T00:03:42;8.80;99.90
30973;DHT22;25423;45.624;13.790;2022-11-20T00:06:10;8.70;99.90
30973;DHT22;25423;45.624;13.790;2022-11-20T00:08:36;8.70;99.90
30973;DHT22;25423;45.624;13.790;2022-11-20T00:11:08;8.70;99.90
30973;DHT22;25423;45.624;13.790;2022-11-20T00:13:34;8.70;99.90
30973;DHT22;25423;45.624;13.790;2022-11-20T00:16:01;8.70;99.90
30973;DHT22;25423;45.624;13.790;2022-11-20T00:18:27;8.70;99.90
30973;DHT22;25423;45.624;13.790;2022-11-20T00:20:53;8.80;99.90
30973;DHT22;25423;45.624;13.790;2022-11-20T00:23:21;8.70;99.90
30973;DHT22;25423;45.624;13.790;2022-11-20T00:25:47;8.70;99.90
30973;DHT22;25423;45.624;13.790;2022-11-20T00:28:13;8.70;99.90
30973;DHT22;25423;45.624;13.790;2022-11-20T00:30:44;8.60;99.90
30973;DHT22;25423;45.624;13.790;2022-11-20T00:33:12;8.60;99.90
30973;DHT22;25423;45.624;13.790;2022-11-20T00:35:38;8.60;99.90
30973;DHT22;25423;45.624;13.790;2022-11-20T00:38:04;8.60;99.90
30973;DHT22;25423;45.624;13.790;2022-11-20T00:40:30;8.60;99.90
30973;DHT22;25423;45.624;13.790;2022-11-20T00:42:56;8.60;99.90
30973;DHT22;25423;45.624;13.790;2022-11-20T00:45:22;8.60;99.90
30973;DHT22;25423;45.624;13.790;2022-11-20T00:47:47;8.70;99.90
30973;DHT22;25423;45.624;13.790;2022-11-20T00:50:13;8.70;99.90
30973;DHT22;25423;45.624;13.790;2022-11-20T00:52:52;8.60;99.90
30973;DHT22;25423;45.624;13.790;2022-11-20T00:55:17;8.60;99.90
30973;DHT22;25423;45.624;13.790;2022-11-20T00:57:43;8.50;99.90
30973;DHT22;25423;45.624;13.790;2022-11-20T01:00:09;8.50;99.90
30973;DHT22;25423;45.624;13.790;2022-11-20T01:02:35;8.40;99.90
30973;DHT22;25423;45.624;13.790;2022-11-20T01:05:01;8.30;99.90
30973;DHT22;25423;45.624;13.790;2022-11-20T01:07:27;8.40;99.90
30973;DHT22;25423;45.624;13.790;2022-11-20T01:09:53;8.40;99.90
30973;DHT22;25423;45.624;13.790;2022-11-20T01:12:19;8.40;99.90
30973;DHT22;25423;45.624;13.790;2022-11-20T01:14:47;8.40;99.90
30973;DHT22;25423;45.624;13.790;2022-11-20T01:17:16;8.50;99.90
30973;DHT22;25423;45.624;13.790;2022-11-20T01:19:41;8.40;99.90
30973;DHT22;25423;45.624;13.790;2022-11-20T01:22:07;8.50;99.90
30973;DHT22;25423;45.624;13.790;2022-11-20T01:24:33;8.40;99.90
30973;DHT22;25423;45.624;13.790;2022-11-20T01:26:59;8.40;99.90
30973;DHT22;25423;45.624;13.790;2022-11-20T01:29:24;8.40;99.90
30973;DHT22;25423;45.624;13.790;2022-11-20T01:31:56;8.30;99.90
30973;DHT22;25423;45.624;13.790;2022-11-20T01:34:24;8.30;99.90
30973;DHT22;25423;45.624;13.790;2022-11-20T01:36:53;8.30;99.90
30973;DHT22;25423;45.624;13.790;2022-11-20T01:39:20;8.30;99.90
30973;DHT22;25423;45.624;13.790;2022-11-20T01:41:47;8.30;99.90
30973;DHT22;25423;45.624;13.790;2022-11-20T01:47:26;8.30;99.90
30973;DHT22;25423;45.624;13.790;2022-11-20T01:49:58;8.30;99.90
30973;DHT22;25423;45.624;13.790;2022-11-20T01:52:36;8.40;99.90
30973;DHT22;25423;45.624;13.790;2022-11-20T01:55:10;8.40;99.90
30973;DHT22;25423;45.624;13.790;2022-11-20T01:57:38;8.40;99.90
30973;DHT22;25423;45.624;13.790;2022-11-20T02:00:06;8.40;99.90
30973;DHT22;25423;45.624;13.790;2022-11-20T02:02:32;8.40;99.90
30973;DHT22;25423;45.624;13.790;2022-11-20T02:05:00;8.40;99.90
30973;DHT22;25423;45.624;13.790;2022-11-20T02:07:26;8.40;99.90
30973;DHT22;25423;45.624;13.790;2022-11-20T02:09:54;8.50;99.90
30973;DHT22;25423;45.624;13.790;2022-11-20T02:12:23;8.40;99.90
30973;DHT22;25423;45.624;13.790;2022-11-20T02:15:08;8.40;99.90
30973;DHT22;25423;45.624;13.790;2022-11-20T02:17:36;8.40;99.90
30973;DHT22;25423;45.624;13.790;2022-11-20T02:20:03;8.40;99.90
30973;DHT22;25423;45.624;13.790;2022-11-20T02:22:39;8.40;99.90
30973;DHT22;25423;45.624;13.790;2022-11-20T02:25:18;8.40;99.90
30973;DHT22;25423;45.624;13.790;2022-11-20T02:27:44;8.50;99.90
30973;DHT22;25423;45.624;13.790;2022-11-20T02:30:13;8.50;99.90
30973;DHT22;25423;45.624;13.790;2022-11-20T02:32:58;8.40;99.90
30973;DHT22;25423;45.624;13.790;2022-11-20T02:38:07;8.40;99.90
30973;DHT22;25423;45.624;13.790;2022-11-20T02:40:32;8.40;99.90
30973;DHT22;25423;45.624;13.790;2022-11-20T02:42:58;8.30;99.90
30973;DHT22;25423;45.624;13.790;2022-11-20T02:45:24;8.40;99.90
30973;DHT22;25423;45.624;13.790;2022-11-20T02:48:03;8.40;99.90
30973;DHT22;25423;45.624;13.790;2022-11-20T02:50:47;8.40;99.90
30973;DHT22;25423;45.624;13.790;2022-11-20T02:53:18;8.30;99.90
30973;DHT22;25423;45.624;13.790;2022-11-20T02:56:14;8.30;99.90
30973;DHT22;25423;45.624;13.790;2022-11-20T02:58:40;8.30;99.90
30973;DHT22;25423;45.624;13.790;2022-11-20T03:01:06;8.40;99.90
30973;DHT22;25423;45.624;13.790;2022-11-20T03:03:35;8.40;99.90
30973;DHT22;25423;45.624;13.790;2022-11-20T03:06:00;8.40;99.90
30973;DHT22;25423;45.624;13.790;2022-11-20T03:08:26;8.40;99.90
30973;DHT22;25423;45.624;13.790;2022-11-20T03:10:52;8.40;99.90
30973;DHT22;25423;45.624;13.790;2022-11-20T03:13:17;8.40;99.90
30973;DHT22;25423;45.624;13.790;2022-11-20T03:15:43;8.30;99.90
30973;DHT22;25423;45.624;13.790;2022-11-20T03:18:09;8.30;99.90
30973;DHT22;25423;45.624;13.790;2022-11-20T03:20:35;8.30;99.90
30973;DHT22;25423;45.624;13.790;2022-11-20T03:23:00;8.40;99.90
30973;DHT22;25423;45.624;13.790;2022-11-20T03:25:26;8.40;99.90
30973;DHT22;25423;45.624;13.790;2022-11-20T03:27:52;8.40;99.90
30973;DHT22;25423;45.624;13.790;2022-11-20T03:30:18;8.50;99.90
30973;DHT22;25423;45.624;13.790;2022-11-20T03:32:45;8.50;99.90
30973;DHT22;25423;45.624;13.790;2022-11-20T03:35:10;8.50;99.90
30973;DHT22;25423;45.624;13.790;2022-11-20T03:37:36;8.40;99.90
30973;DHT22;25423;45.624;13.790;2022-11-20T03:40:03;8.40;99.90
30973;DHT22;25423;45.624;13.790;2022-11-20T03:42:28;8.40;99.90
30973;DHT22;25423;45.624;13.790;2022-11-20T03:45:13;8.50;99.90
30973;DHT22;25423;45.624;13.790;2022-11-20T03:47:48;8.50;99.90
30973;DHT22;25423;45.624;13.790;2022-11-20T03:50:35;8.50;99.90
30973;DHT22;25423;45.624;13.790;2022-11-20T03:53:12;8.50;99.90
30973;DHT22;25423;45.624;13.790;2022-11-20T03:59:32;8.50;99.90
30973;DHT22;25423;45.624;13.790;2022-11-20T04:02:12;8.50;99.90
30973;DHT22;25423;45.624;13.790;2022-11-20T04:05:02;8.50;99.90
30973;DHT22;25423;45.624;13.790;2022-11-20T04:07:39;8.50;99.90
30973;DHT22;25423;45.624;13.790;2022-11-20T04:10:26;8.60;99.90
30973;DHT22;25423;45.624;13.790;2022-11-20T04:12:58;8.60;99.90
30973;DHT22;25423;45.624;13.790;2022-11-20T04:15:26;8.60;99.90
30973;DHT22;25423;45.624;13.790;2022-11-20T04:17:53;8.70;99.90
30973;DHT22;25423;45.624;13.790;2022-11-20T04:20:21;8.70;99.90
30973;DHT22;25423;45.624;13.790;2022-11-20T04:22:52;8.70;99.90
30973;DHT22;25423;45.624;13.790;2022-11-20T04:25:21;8.70;99.90
30973;DHT22;25423;45.624;13.790;2022-11-20T04:27:55;8.80;99.90
30973;DHT22;25423;45.624;13.790;2022-11-20T04:30:21;8.80;99.90
30973;DHT22;25423;45.624;13.790;2022-11-20T04:32:47;8.90;99.90
30973;DHT22;25423;45.624;13.790;2022-11-20T04:35:12;8.90;99.90
30973;DHT22;25423;45.624;13.790;2022-11-20T04:37:41;8.90;99.90
30973;DHT22;25423;45.624;13.790;2022-11-20T04:40:09;8.80;99.90
30973;DHT22;25423;45.624;13.790;2022-11-20T04:42:35;8.80;99.90
30973;DHT22;25423;45.624;13.790;2022-11-20T04:45:01;8.90;99.90
30973;DHT22;25423;45.624;13.790;2022-11-20T04:47:27;8.90;99.90
30973;DHT22;25423;45.624;13.790;2022-11-20T04:49:53;8.90;99.90
30973;DHT22;25423;45.624;13.790;2022-11-20T04:52:19;9.00;99.90
30973;DHT22;25423;45.624;13.790;2022-11-20T04:54:45;9.00;99.90
30973;DHT22;25423;45.624;13.790;2022-11-20T04:57:12;9.10;99.90
30973;DHT22;25423;45.624;13.790;2022-11-20T04:59:38;9.10;99.90
30973;DHT22;25423;45.624;13.790;2022-11-20T05:02:06;9.20;99.90
30973;DHT22;25423;45.624;13.790;2022-11-20T05:04:32;9.10;99.90
30973;DHT22;25423;45.624;13.790;2022-11-20T05:06:58;9.10;99.90
30973;DHT22;25423;45.624;13.790;2022-11-20T05:09:24;9.10;99.90
30973;DHT22;25423;45.624;13.790;2022-11-20T05:11:49;9.20;99.90
30973;DHT22;25423;45.624;13.790;2022-11-20T05:14:15;9.20;99.90
30973;DHT22;25423;45.624;13.790;2022-11-20T05:16:41;9.10;99.90
30973;DHT22;25423;45.624;13.790;2022-11-20T05:19:07;9.20;99.90
30973;DHT22;25423;45.624;13.790;2022-11-20T05:21:33;9.20;99.90
30973;DHT22;25423;45.624;13.790;2022-11-20T05:23:58;9.20;99.90
30973;DHT22;25423;45.624;13.790;2022-11-20T05:26:24;9.10;99.90
30973;DHT22;25423;45.624;13.790;2022-11-20T05:28:50;9.20;99.90
30973;DHT22;25423;45.624;13.790;2022-11-20T05:31:21;9.20;99.90
30973;DHT22;25423;45.624;13.790;2022-11-20T05:33:46;9.20;99.90
30973;DHT22;25423;45.624;13.790;2022-11-20T05:36:13;9.10;99.90
30973;DHT22;25423;45.624;13.790;2022-11-20T05:38:40;9.20;99.90
30973;DHT22;25423;45.624;13.790;2022-11-20T05:43:38;9.20;99.90
30973;DHT22;25423;45.624;13.790;2022-11-20T05:46:04;9.30;99.90
30973;DHT22;25423;45.624;13.790;2022-11-20T05:48:31;9.30;99.90
30973;DHT22;25423;45.624;13.790;2022-11-20T05:50:58;9.30;99.90
30973;DHT22;25423;45.624;13.790;2022-11-20T05:53:26;9.40;99.90
30973;DHT22;25423;45.624;13.790;2022-11-20T05:55:58;9.40;99.90
30973;DHT22;25423;45.624;13.790;2022-11-20T05:58:24;9.40;99.90
30973;DHT22;25423;45.624;13.790;2022-11-20T06:00:50;9.40;99.90
30973;DHT22;25423;45.624;13.790;2022-11-20T06:03:15;9.40;99.90
30973;DHT22;25423;45.624;13.790;2022-11-20T06:05:44;9.30;99.90
30973;DHT22;25423;45.624;13.790;2022-11-20T06:08:10;9.30;99.90
30973;DHT22;25423;45.624;13.790;2022-11-20T06:10:35;9.30;99.90
30973;DHT22;25423;45.624;13.790;2022-11-20T06:13:04;9.30;99.90
30973;DHT22;25423;45.624;13.790;2022-11-20T06:15:30;9.20;99.90
30973;DHT22;25423;45.624;13.790;2022-11-20T06:17:56;9.20;99.90
30973;DHT22;25423;45.624;13.790;2022-11-20T06:20:21;9.10;99.90
30973;DHT22;25423;45.624;13.790;2022-11-20T06:22:50;9.10;99.90
30973;DHT22;25423;45.624;13.790;2022-11-20T06:25:19;9.10;99.90
30973;DHT22;25423;45.624;13.790;2022-11-20T06:27:48;9.00;99.90
30973;DHT22;25423;45.624;13.790;2022-11-20T06:30:14;9.10;99.90
30973;DHT22;25423;45.624;13.790;2022-11-20T06:32:43;9.10;99.90
30973;DHT22;25423;45.624;13.790;2022-11-20T06:35:08;9.10;99.90
30973;DHT22;25423;45.624;13.790;2022-11-20T06:37:34;9.10;99.90
30973;DHT22;25423;45.624;13.790;2022-11-20T06:40:00;9.10;99.90
30973;DHT22;25423;45.624;13.790;2022-11-20T06:42:25;9.10;99.90
30973;DHT22;25423;45.624;13.790;2022-11-20T06:44:51;9.10;99.90
30973;DHT22;25423;45.624;13.790;2022-11-20T06:47:17;9.10;99.90
30973;DHT22;25423;45.624;13.790;2022-11-20T06:49:47;9.10;99.90
30973;DHT22;25423;45.624;13.790;2022-11-20T06:52:13;9.10;99.90
30973;DHT22;25423;45.624;13.790;2022-11-20T06:54:42;9.10;99.90
30973;DHT22;25423;45.624;13.790;2022-11-20T06:57:08;9.10;99.90
30973;DHT22;25423;45.624;13.790;2022-11-20T06:59:33;9.10;99.90
30973;DHT22;25423;45.624;13.790;2022-11-20T07:01:59;9.10;99.90
30973;DHT22;25423;45.624;13.790;2022-11-20T07:04:28;9.10;99.90
30973;DHT22;25423;45.624;13.790;2022-11-20T07:06:53;9.20;99.90
30973;DHT22;25423;45.624;13.790;2022-11-20T07:09:19;9.20;99.90
30973;DHT22;25423;45.624;13.790;2022-11-20T07:11:48;9.20;99.90
30973;DHT22;25423;45.624;13.790;2022-11-20T07:14:13;9.20;99.90
30973;DHT22;25423;45.624;13.790;2022-11-20T07:16:39;9.30;99.90
30973;DHT22;25423;45.624;13.790;2022-11-20T07:19:05;9.30;99.90
30973;DHT22;25423;45.624;13.790;2022-11-20T07:21:34;9.30;99.90
30973;DHT22;25423;45.624;13.790;2022-11-20T07:23:59;9.30;99.90
30973;DHT22;25423;45.624;13.790;2022-11-20T07:26:25;9.40;99.90
30973;DHT22;25423;45.624;13.790;2022-11-20T07:28:51;9.40;99.90
30973;DHT22;25423;45.624;13.790;2022-11-20T07:31:19;9.40;99.90
30973;DHT22;25423;45.624;13.790;2022-11-20T07:33:45;9.50;99.90
30973;DHT22;25423;45.624;13.790;2022-11-20T07:36:11;9.40;99.90
30973;DHT22;25423;45.624;13.790;2022-11-20T07:38:37;9.50;99.90
30973;DHT22;25423;45.624;13.790;2022-11-20T07:41:03;9.50;99.90
30973;DHT22;25423;45.624;13.790;2022-11-20T07:43:29;9.50;99.90
30973;DHT22;25423;45.624;13.790;2022-11-20T07:45:55;9.50;99.90
30973;DHT22;25423;45.624;13.790;2022-11-20T07:48:22;9.60;99.90
30973;DHT22;25423;45.624;13.790;2022-11-20T07:50:47;9.60;99.90
30973;DHT22;25423;45.624;13.790;2022-11-20T07:53:13;9.60;99.90
30973;DHT22;25423;45.624;13.790;2022-11-20T07:55:39;9.70;99.90
30973;DHT22;25423;45.624;13.790;2022-11-20T07:58:05;9.70;99.90
30973;DHT22;25423;45.624;13.790;2022-11-20T08:00:31;9.80;99.90
30973;DHT22;25423;45.624;13.790;2022-11-20T08:02:56;9.80;99.90
30973;DHT22;25423;45.624;13.790;2022-11-20T08:05:23;9.70;99.90
30973;DHT22;25423;45.624;13.790;2022-11-20T08:07:49;9.70;99.90
30973;DHT22;25423;45.624;13.790;2022-11-20T08:10:14;9.80;99.90
30973;DHT22;25423;45.624;13.790;2022-11-20T08:12:51;9.80;99.90
30973;DHT22;25423;45.624;13.790;2022-11-20T08:15:35;9.70;99.90
30973;DHT22;25423;45.624;13.790;2022-11-20T08:18:05;9.70;99.90
30973;DHT22;25423;45.624;13.790;2022-11-20T08:20:31;9.70;99.90
30973;DHT22;25423;45.624;13.790;2022-11-20T08:23:01;9.70;99.90
30973;DHT22;25423;45.624;13.790;2022-11-20T08:25:30;9.70;99.90
30973;DHT22;25423;45.624;13.790;2022-11-20T08:27:57;9.70;99.90
30973;DHT22;25423;45.624;13.790;2022-11-20T08:30:23;9.80;99.90
30973;DHT22;25423;45.624;13.790;2022-11-20T08:32:48;9.80;99.90
30973;DHT22;25423;45.624;13.790;2022-11-20T08:35:14;9.90;99.90
30973;DHT22;25423;45.624;13.790;2022-11-20T08:37:40;9.80;99.90
30973;DHT22;25423;45.624;13.790;2022-11-20T08:40:10;9.80;99.90
30973;DHT22;25423;45.624;13.790;2022-11-20T08:42:36;9.70;99.90
30973;DHT22;25423;45.624;13.790;2022-11-20T08:45:02;9.60;99.90
30973;DHT22;25423;45.624;13.790;2022-11-20T08:47:28;9.60;99.90
30973;DHT22;25423;45.624;13.790;2022-11-20T08:49:54;9.70;99.90
30973;DHT22;25423;45.624;13.790;2022-11-20T08:52:19;9.80;99.90
30973;DHT22;25423;45.624;13.790;2022-11-20T08:54:45;9.80;99.90
30973;DHT22;25423;45.624;13.790;2022-11-20T08:57:11;9.80;99.90
30973;DHT22;25423;45.624;13.790;2022-11-20T08:59:37;9.70;99.90
30973;DHT22;25423;45.624;13.790;2022-11-20T09:02:03;9.70;99.90
30973;DHT22;25423;45.624;13.790;2022-11-20T09:04:28;9.80;99.90
30973;DHT22;25423;45.624;13.790;2022-11-20T09:06:56;9.90;99.90
30973;DHT22;25423;45.624;13.790;2022-11-20T09:09:21;10.00;99.90
30973;DHT22;25423;45.624;13.790;2022-11-20T09:11:47;10.00;99.90
30973;DHT22;25423;45.624;13.790;2022-11-20T09:14:15;10.00;99.90
30973;DHT22;25423;45.624;13.790;2022-11-20T09:16:41;10.00;99.90
30973;DHT22;25423;45.624;13.790;2022-11-20T09:19:06;10.10;99.90
30973;DHT22;25423;45.624;13.790;2022-11-20T09:21:32;10.10;99.90
30973;DHT22;25423;45.624;13.790;2022-11-20T09:23:57;10.20;99.90
30973;DHT22;25423;45.624;13.790;2022-11-20T09:32:16;10.20;99.90
30973;DHT22;25423;45.624;13.790;2022-11-20T09:56:16;10.60;99.90
30973;DHT22;25423;45.624;13.790;2022-11-20T10:01:45;10.60;99.90
30973;DHT22;25423;45.624;13.790;2022-11-20T10:04:24;10.60;99.90
30973;DHT22;25423;45.624;13.790;2022-11-20T10:07:13;10.70;99.90
30973;DHT22;25423;45.624;13.790;2022-11-20T10:10:03;10.70;99.90
30973;DHT22;25423;45.624;13.790;2022-11-20T10:29:21;10.80;99.90
30973;DHT22;25423;45.624;13.790;2022-11-20T10:32:15;11.00;99.90
30973;DHT22;25423;45.624;13.790;2022-11-20T10:41:26;11.30;99.90
30973;DHT22;25423;45.624;13.790;2022-11-20T10:47:18;11.40;99.90
30973;DHT22;25423;45.624;13.790;2022-11-20T11:10:18;11.40;99.90
30973;DHT22;25423;45.624;13.790;2022-11-20T11:15:43;11.10;99.90
30973;DHT22;25423;45.624;13.790;2022-11-20T11:18:09;11.20;99.90
30973;DHT22;25423;45.624;13.790;2022-11-20T11:20:35;11.20;99.90
30973;DHT22;25423;45.624;13.790;2022-11-20T11:26:03;11.10;99.90
30973;DHT22;25423;45.624;13.790;2022-11-20T11:28:29;11.10;99.90
30973;DHT22;25423;45.624;13.790;2022-11-20T11:31:03;11.00;99.90
30973;DHT22;25423;45.624;13.790;2022-11-20T11:33:50;11.10;99.90
30973;DHT22;25423;45.624;13.790;2022-11-20T11:36:21;11.20;99.90
30973;DHT22;25423;45.624;13.790;2022-11-20T11:39:12;11.40;99.90
30973;DHT22;25423;45.624;13.790;2022-11-20T11:41:52;11.30;99.90
30973;DHT22;25423;45.624;13.790;2022-11-20T11:44:24;11.40;99.90
30973;DHT22;25423;45.624;13.790;2022-11-20T11:47:23;11.40;99.90
30973;DHT22;25423;45.624;13.790;2022-11-20T11:50:26;11.40;99.90
30973;DHT22;25423;45.624;13.790;2022-11-20T11:55:29;11.40;99.90
30973;DHT22;25423;45.624;13.790;2022-11-20T11:57:59;11.50;99.90
30973;DHT22;25423;45.624;13.790;2022-11-20T12:00:27;11.50;99.90
30973;DHT22;25423;45.624;13.790;2022-11-20T12:02:56;11.40;99.90
30973;DHT22;25423;45.624;13.790;2022-11-20T12:10:30;11.50;99.90
30973;DHT22;25423;45.624;13.790;2022-11-20T12:13:21;11.50;99.90
30973;DHT22;25423;45.624;13.790;2022-11-20T12:15:46;11.60;99.90
30973;DHT22;25423;45.624;13.790;2022-11-20T12:18:17;11.60;99.90
30973;DHT22;25423;45.624;13.790;2022-11-20T12:20:56;11.50;99.90
30973;DHT22;25423;45.624;13.790;2022-11-20T12:23:35;11.40;99.90
30973;DHT22;25423;45.624;13.790;2022-11-20T12:26:06;11.40;99.90
30973;DHT22;25423;45.624;13.790;2022-11-20T12:36:13;11.40;99.90
30973;DHT22;25423;45.624;13.790;2022-11-20T12:41:50;11.40;99.90
30973;DHT22;25423;45.624;13.790;2022-11-20T12:50:02;11.40;99.90
30973;DHT22;25423;45.624;13.790;2022-11-20T12:55:25;11.50;99.90
30973;DHT22;25423;45.624;13.790;2022-11-20T13:03:41;11.40;99.90
30973;DHT22;25423;45.624;13.790;2022-11-20T13:06:13;11.30;99.90
30973;DHT22;25423;45.624;13.790;2022-11-20T13:08:41;11.20;99.90
30973;DHT22;25423;45.624;13.790;2022-11-20T13:13:55;11.40;99.90
30973;DHT22;25423;45.624;13.790;2022-11-20T13:16:28;11.30;99.90
30973;DHT22;25423;45.624;13.790;2022-11-20T13:18:56;11.30;99.90
30973;DHT22;25423;45.624;13.790;2022-11-20T13:21:37;11.40;99.90
30973;DHT22;25423;45.624;13.790;2022-11-20T13:24:06;11.30;99.90
30973;DHT22;25423;45.624;13.790;2022-11-20T13:26:33;11.30;99.90
30973;DHT22;25423;45.624;13.790;2022-11-20T13:29:02;11.20;99.90
30973;DHT22;25423;45.624;13.790;2022-11-20T13:31:32;11.20;99.90
30973;DHT22;25423;45.624;13.790;2022-11-20T13:33:59;11.30;99.90
30973;DHT22;25423;45.624;13.790;2022-11-20T13:36:26;11.40;99.90
30973;DHT22;25423;45.624;13.790;2022-11-20T13:38:53;11.40;99.90
30973;DHT22;25423;45.624;13.790;2022-11-20T13:41:34;11.40;99.90
30973;DHT22;25423;45.624;13.790;2022-11-20T13:46:38;11.50;99.90
30973;DHT22;25423;45.624;13.790;2022-11-20T13:49:08;11.40;99.90
30973;DHT22;25423;45.624;13.790;2022-11-20T13:51:42;11.30;99.90
30973;DHT22;25423;45.624;13.790;2022-11-20T13:56:47;11.40;99.90
30973;DHT22;25423;45.624;13.790;2022-11-20T13:59:31;11.40;99.90
30973;DHT22;25423;45.624;13.790;2022-11-20T14:01:59;11.50;99.90
30973;DHT22;25423;45.624;13.790;2022-11-20T14:04:26;11.40;99.90
30973;DHT22;25423;45.624;13.790;2022-11-20T14:06:54;11.40;99.90
30973;DHT22;25423;45.624;13.790;2022-11-20T14:09:35;11.40;99.90
30973;DHT22;25423;45.624;13.790;2022-11-20T14:12:12;11.40;99.90
30973;DHT22;25423;45.624;13.790;2022-11-20T14:14:46;11.40;99.90
30973;DHT22;25423;45.624;13.790;2022-11-20T14:17:19;11.40;99.90
30973;DHT22;25423;45.624;13.790;2022-11-20T14:19:46;11.50;99.90
30973;DHT22;25423;45.624;13.790;2022-11-20T14:22:20;11.50;99.90
30973;DHT22;25423;45.624;13.790;2022-11-20T14:24:47;11.60;99.90
30973;DHT22;25423;45.624;13.790;2022-11-20T14:27:19;11.50;99.90
30973;DHT22;25423;45.624;13.790;2022-11-20T14:29:46;11.60;99.90
30973;DHT22;25423;45.624;13.790;2022-11-20T14:32:19;11.60;99.90
30973;DHT22;25423;45.624;13.790;2022-11-20T14:34:47;11.50;99.90
30973;DHT22;25423;45.624;13.790;2022-11-20T14:37:17;11.50;99.90
30973;DHT22;25423;45.624;13.790;2022-11-20T14:39:51;11.50;99.90
30973;DHT22;25423;45.624;13.790;2022-11-20T14:42:28;11.60;99.90
30973;DHT22;25423;45.624;13.790;2022-11-20T14:44:57;11.50;99.90
30973;DHT22;25423;45.624;13.790;2022-11-20T14:47:27;11.40;99.90
30973;DHT22;25423;45.624;13.790;2022-11-20T14:49:53;11.30;99.90
30973;DHT22;25423;45.624;13.790;2022-11-20T14:52:23;11.30;99.90
30973;DHT22;25423;45.624;13.790;2022-11-20T14:54:53;11.20;99.90
30973;DHT22;25423;45.624;13.790;2022-11-20T14:57:21;11.10;99.90
30973;DHT22;25423;45.624;13.790;2022-11-20T14:59:46;11.00;99.90
30973;DHT22;25423;45.624;13.790;2022-11-20T15:02:12;11.00;99.90
30973;DHT22;25423;45.624;13.790;2022-11-20T15:05:11;10.90;99.90
30973;DHT22;25423;45.624;13.790;2022-11-20T15:07:31;10.90;99.90
30973;DHT22;25423;45.624;13.790;2022-11-20T15:10:04;10.90;99.90
30973;DHT22;25423;45.624;13.790;2022-11-20T15:12:31;10.90;99.90
30973;DHT22;25423;45.624;13.790;2022-11-20T15:14:58;10.90;99.90
30973;DHT22;25423;45.624;13.790;2022-11-20T15:17:23;10.80;99.90
30973;DHT22;25423;45.624;13.790;2022-11-20T15:19:49;10.70;99.90
30973;DHT22;25423;45.624;13.790;2022-11-20T15:22:15;10.70;99.90
30973;DHT22;25423;45.624;13.790;2022-11-20T15:24:41;10.70;99.90
30973;DHT22;25423;45.624;13.790;2022-11-20T15:27:11;10.70;99.90
30973;DHT22;25423;45.624;13.790;2022-11-20T15:30:00;10.70;99.90
30973;DHT22;25423;45.624;13.790;2022-11-20T15:32:27;10.60;99.90
30973;DHT22;25423;45.624;13.790;2022-11-20T15:34:52;10.50;99.90
30973;DHT22;25423;45.624;13.790;2022-11-20T15:37:18;10.40;99.90
30973;DHT22;25423;45.624;13.790;2022-11-20T15:39:44;10.40;99.90
30973;DHT22;25423;45.624;13.790;2022-11-20T15:42:09;10.40;99.90
30973;DHT22;25423;45.624;13.790;2022-11-20T15:44:35;10.40;99.90
30973;DHT22;25423;45.624;13.790;2022-11-20T15:47:00;10.40;99.90
30973;DHT22;25423;45.624;13.790;2022-11-20T15:49:26;10.40;99.90
30973;DHT22;25423;45.624;13.790;2022-11-20T15:51:52;10.40;99.90
30973;DHT22;25423;45.624;13.790;2022-11-20T15:54:20;10.30;99.90
30973;DHT22;25423;45.624;13.790;2022-11-20T15:56:47;10.30;99.90
30973;DHT22;25423;45.624;13.790;2022-11-20T15:59:13;10.30;99.90
30973;DHT22;25423;45.624;13.790;2022-11-20T16:01:42;10.30;99.90
30973;DHT22;25423;45.624;13.790;2022-11-20T16:04:11;10.30;99.90
30973;DHT22;25423;45.624;13.790;2022-11-20T16:06:37;10.20;99.90
30973;DHT22;25423;45.624;13.790;2022-11-20T16:09:03;10.20;99.90
30973;DHT22;25423;45.624;13.790;2022-11-20T16:11:33;10.20;99.90
30973;DHT22;25423;45.624;13.790;2022-11-20T16:14:06;10.10;99.90
30973;DHT22;25423;45.624;13.790;2022-11-20T16:16:55;10.10;99.90
30973;DHT22;25423;45.624;13.790;2022-11-20T16:19:27;10.10;99.90
30973;DHT22;25423;45.624;13.790;2022-11-20T16:21:52;10.10;99.90
30973;DHT22;25423;45.624;13.790;2022-11-20T16:24:18;10.00;99.90
30973;DHT22;25423;45.624;13.790;2022-11-20T16:26:44;10.00;99.90
30973;DHT22;25423;45.624;13.790;2022-11-20T16:29:12;10.00;99.90
30973;DHT22;25423;45.624;13.790;2022-11-20T16:31:42;10.00;99.90
30973;DHT22;25423;45.624;13.790;2022-11-20T16:34:08;9.90;99.90
30973;DHT22;25423;45.624;13.790;2022-11-20T16:36:34;9.90;99.90
30973;DHT22;25423;45.624;13.790;2022-11-20T16:39:00;9.90;99.90
30973;DHT22;25423;45.624;13.790;2022-11-20T16:41:26;9.80;99.90
30973;DHT22;25423;45.624;13.790;2022-11-20T16:43:53;9.90;99.90
30973;DHT22;25423;45.624;13.790;2022-11-20T16:46:20;9.80;99.90
30973;DHT22;25423;45.624;13.790;2022-11-20T16:49:05;9.80;99.90
30973;DHT22;25423;45.624;13.790;2022-11-20T16:51:33;9.60;99.90
30973;DHT22;25423;45.624;13.790;2022-11-20T16:54:02;9.70;99.90
30973;DHT22;25423;45.624;13.790;2022-11-20T16:56:28;9.60;99.90
30973;DHT22;25423;45.624;13.790;2022-11-20T16:58:55;9.70;99.90
30973;DHT22;25423;45.624;13.790;2022-11-20T17:01:22;9.70;99.90
30973;DHT22;25423;45.624;13.790;2022-11-20T17:04:01;9.80;99.90
30973;DHT22;25423;45.624;13.790;2022-11-20T17:06:28;9.60;99.90
30973;DHT22;25423;45.624;13.790;2022-11-20T17:08:54;9.60;99.90
30973;DHT22;25423;45.624;13.790;2022-11-20T17:11:20;9.60;99.90
30973;DHT22;25423;45.624;13.790;2022-11-20T17:13:46;9.90;99.90
30973;DHT22;25423;45.624;13.790;2022-11-20T17:16:13;10.00;99.90
30973;DHT22;25423;45.624;13.790;2022-11-20T17:18:40;9.80;99.90
30973;DHT22;25423;45.624;13.790;2022-11-20T17:21:06;9.60;99.90
30973;DHT22;25423;45.624;13.790;2022-11-20T17:23:36;9.70;99.90
30973;DHT22;25423;45.624;13.790;2022-11-20T17:26:15;9.50;99.90
30973;DHT22;25423;45.624;13.790;2022-11-20T17:28:42;9.50;99.90
30973;DHT22;25423;45.624;13.790;2022-11-20T17:31:10;9.40;99.90
30973;DHT22;25423;45.624;13.790;2022-11-20T17:33:37;9.40;99.90
30973;DHT22;25423;45.624;13.790;2022-11-20T17:36:03;9.20;99.90
30973;DHT22;25423;45.624;13.790;2022-11-20T17:38:31;9.30;99.90
30973;DHT22;25423;45.624;13.790;2022-11-20T17:41:04;9.30;99.90
30973;DHT22;25423;45.624;13.790;2022-11-20T17:43:30;9.20;99.90
30973;DHT22;25423;45.624;13.790;2022-11-20T17:45:59;9.30;99.90
30973;DHT22;25423;45.624;13.790;2022-11-20T17:48:24;9.40;99.90
30973;DHT22;25423;45.624;13.790;2022-11-20T17:50:50;9.20;99.90
30973;DHT22;25423;45.624;13.790;2022-11-20T17:53:16;9.20;99.90